Time,TemperatureF,DewpointF,PressureIn,WindDirection,WindDirectionDegrees,WindSpeedMPH,WindSpeedGustMPH,Humidity,HourlyPrecipIn,Conditions,Clouds,dailyrainin,SoftwareType,DateUTC
2013-06-27 00:06:00,75.4,71.6,29.78,SSW,202,0.0,-999.0,88,-99.99,,,0.00,Acu-Link.com,2013-06-27 05:06:00,
2013-06-27 00:21:00,73.9,71.7,29.78,South,180,0.0,-999.0,93,-99.99,,,0.00,Acu-Link.com,2013-06-27 05:21:00,
2013-06-27 00:36:00,72.9,70.8,29.77,SSW,202,0.0,-999.0,93,-99.99,,,0.00,Acu-Link.com,2013-06-27 05:36:00,
2013-06-27 00:51:00,72.0,70.5,29.78,SSW,202,0.0,-999.0,95,-99.99,,,0.00,Acu-Link.com,2013-06-27 05:51:00,
2013-06-27 01:06:00,71.2,69.7,29.77,South,180,0.0,-999.0,95,-99.99,,,0.00,Acu-Link.com,2013-06-27 06:06:00,
2013-06-27 01:22:00,71.6,71.0,29.78,South,180,0.0,-999.0,98,-99.99,,,0.00,Acu-Link.com,2013-06-27 06:22:00,
2013-06-27 01:37:00,70.9,70.3,29.78,SSW,202,0.0,-999.0,98,-99.99,,,0.00,Acu-Link.com,2013-06-27 06:37:00,
2013-06-27 01:52:00,70.5,69.9,29.78,North,0,0.0,-999.0,98,-99.99,,,0.00,Acu-Link.com,2013-06-27 06:52:00,
2013-06-27 02:07:00,70.3,69.7,29.78,NNW,337,0.0,-999.0,98,-99.99,,,0.00,Acu-Link.com,2013-06-27 07:07:00,
2013-06-27 02:22:00,70.3,69.7,29.78,SSW,202,1.7,-999.0,98,-99.99,,,0.00,Acu-Link.com,2013-06-27 07:22:00,
2013-06-27 02:37:00,69.6,69.0,29.79,NNW,337,0.0,-999.0,98,-99.99,,,0.00,Acu-Link.com,2013-06-27 07:37:00,
2013-06-27 02:52:00,70.5,69.9,29.79,NNW,337,0.0,-999.0,98,-99.99,,,0.00,Acu-Link.com,2013-06-27 07:52:00,
2013-06-27 03:08:00,70.9,70.0,29.78,SSW,202,2.7,-999.0,97,-99.99,,,0.00,Acu-Link.com,2013-06-27 08:08:00,
2013-06-27 03:23:00,70.3,69.4,29.78,South,180,1.7,-999.0,97,-99.99,,,0.00,Acu-Link.com,2013-06-27 08:23:00,
2013-06-27 03:38:00,69.6,69.0,29.78,NNE,22,1.7,-999.0,98,-99.99,,,0.00,Acu-Link.com,2013-06-27 08:38:00,
2013-06-27 03:53:00,70.7,70.1,29.79,NNW,337,0.0,-999.0,98,-99.99,,,0.00,Acu-Link.com,2013-06-27 08:53:00,
2013-06-27 04:09:00,68.9,68.3,29.79,South,180,0.0,-999.0,98,-99.99,,,0.00,Acu-Link.com,2013-06-27 09:09:00,
2013-06-27 04:24:00,68.7,68.1,29.80,SW,225,1.7,-999.0,98,-99.99,,,0.00,Acu-Link.com,2013-06-27 09:24:00,
2013-06-27 04:39:00,68.5,67.9,29.80,WSW,247,2.2,-999.0,98,-99.99,,,0.00,Acu-Link.com,2013-06-27 09:39:00,
2013-06-27 04:54:00,68.4,67.8,29.80,WSW,247,2.7,-999.0,98,-99.99,,,0.00,Acu-Link.com,2013-06-27 09:54:00,
2013-06-27 05:09:00,68.4,67.5,29.80,SW,225,2.2,-999.0,97,-99.99,,,0.00,Acu-Link.com,2013-06-27 10:09:00,
2013-06-27 05:24:00,68.4,67.5,29.81,West,270,0.0,-999.0,97,-99.99,,,0.00,Acu-Link.com,2013-06-27 10:24:00,
2013-06-27 05:39:00,68.0,67.1,29.80,SW,225,1.7,-999.0,97,-99.99,,,0.00,Acu-Link.com,2013-06-27 10:39:00,
2013-06-27 05:54:00,68.4,67.5,29.81,WSW,247,2.7,-999.0,97,-99.99,,,0.00,Acu-Link.com,2013-06-27 10:54:00,
2013-06-27 06:09:00,68.5,67.9,29.81,West,270,0.0,-999.0,98,-99.99,,,0.00,Acu-Link.com,2013-06-27 11:09:00,
2013-06-27 06:24:00,69.4,68.8,29.81,SSE,157,1.1,-999.0,98,-99.99,,,0.00,Acu-Link.com,2013-06-27 11:24:00,
2013-06-27 06:41:00,71.1,69.9,29.82,WSW,247,1.7,-999.0,96,-99.99,,,0.00,Acu-Link.com,2013-06-27 11:41:00,
2013-06-27 06:56:00,76.5,74.0,29.82,SSW,202,0.0,-999.0,92,-99.99,,,0.00,Acu-Link.com,2013-06-27 11:56:00,
2013-06-27 07:11:00,79.9,75.0,29.82,West,270,0.0,-999.0,85,-99.99,,,0.00,Acu-Link.com,2013-06-27 12:11:00,
2013-06-27 07:26:00,83.1,76.3,29.84,SW,225,1.7,-999.0,80,-99.99,,,0.00,Acu-Link.com,2013-06-27 12:26:00,
2013-06-27 07:41:00,85.1,77.1,29.84,SSE,157,0.0,-999.0,77,-99.99,,,0.00,Acu-Link.com,2013-06-27 12:41:00,
2013-06-27 07:57:00,87.3,76.7,29.83,South,180,2.2,-999.0,71,-99.99,,,0.00,Acu-Link.com,2013-06-27 12:57:00,
2013-06-27 08:12:00,92.5,78.0,29.84,SW,225,1.7,-999.0,63,-99.99,,,0.00,Acu-Link.com,2013-06-27 13:12:00,
2013-06-27 08:27:00,96.6,79.9,29.84,SW,225,0.0,-999.0,59,-99.99,,,0.00,Acu-Link.com,2013-06-27 13:27:00,
2013-06-27 08:42:00,101.7,80.7,29.84,SSE,157,0.0,-999.0,52,-99.99,,,0.00,Acu-Link.com,2013-06-27 13:42:00,
2013-06-27 08:57:00,100.6,78.5,29.84,SSE,157,0.0,-999.0,50,-99.99,,,0.00,Acu-Link.com,2013-06-27 13:57:00,
2013-06-27 09:12:00,97.0,75.8,29.84,South,180,1.7,-999.0,51,-99.99,,,0.00,Acu-Link.com,2013-06-27 14:12:00,
2013-06-27 09:27:00,91.0,74.6,29.85,South,180,1.7,-999.0,59,-99.99,,,0.00,Acu-Link.com,2013-06-27 14:27:00,
2013-06-27 09:42:00,92.5,76.0,29.85,SSE,157,2.2,-999.0,59,-99.99,,,0.00,Acu-Link.com,2013-06-27 14:42:00,
2013-06-27 09:57:00,90.7,75.4,29.84,SE,135,4.2,-999.0,61,-99.99,,,0.00,Acu-Link.com,2013-06-27 14:57:00,
2013-06-27 10:13:00,92.3,75.9,29.84,SW,225,2.7,-999.0,59,-99.99,,,0.00,Acu-Link.com,2013-06-27 15:13:00,
2013-06-27 10:28:00,95.2,75.3,29.85,ESE,112,1.1,-999.0,53,-99.99,,,0.00,Acu-Link.com,2013-06-27 15:28:00,
2013-06-27 10:43:00,94.5,74.7,29.84,South,180,2.7,-999.0,53,-99.99,,,0.00,Acu-Link.com,2013-06-27 15:43:00,
2013-06-27 10:58:00,92.1,75.7,29.84,ENE,67,2.2,-999.0,59,-99.99,,,0.00,Acu-Link.com,2013-06-27 15:58:00,
2013-06-27 11:13:00,90.7,76.8,29.85,NW,315,0.0,-999.0,64,-99.99,,,0.00,Acu-Link.com,2013-06-27 16:13:00,
2013-06-27 11:28:00,88.9,76.0,29.85,WNW,292,0.0,-999.0,66,-99.99,,,0.00,Acu-Link.com,2013-06-27 16:28:00,
2013-06-27 11:43:00,86.2,75.2,29.86,West,270,0.0,-999.0,70,-99.99,,,0.00,Acu-Link.com,2013-06-27 16:43:00,
2013-06-27 11:58:00,88.9,75.1,29.88,NW,315,0.0,-999.0,64,-99.99,,,0.00,Acu-Link.com,2013-06-27 16:58:00,
2013-06-27 12:14:00,86.0,75.9,29.90,WNW,292,5.8,-999.0,72,-99.99,,,0.00,Acu-Link.com,2013-06-27 17:14:00,
2013-06-27 12:29:00,82.8,74.4,29.92,WNW,292,6.3,-999.0,76,-99.99,,,0.00,Acu-Link.com,2013-06-27 17:29:00,
2013-06-27 12:45:00,80.1,74.1,29.92,West,270,4.2,-999.0,82,-99.99,,,0.00,Acu-Link.com,2013-06-27 17:45:00,
2013-06-27 13:00:00,77.7,73.5,29.91,South,180,4.7,-999.0,87,-99.99,,,0.00,Acu-Link.com,2013-06-27 18:00:00,
2013-06-27 13:15:00,75.9,72.7,29.92,North,0,0.0,-999.0,90,-99.99,,,0.01,Acu-Link.com,2013-06-27 18:15:00,
2013-06-27 13:30:00,75.0,72.5,29.90,WNW,292,4.2,-999.0,92,-99.99,,,0.01,Acu-Link.com,2013-06-27 18:30:00,
2013-06-27 13:45:00,74.5,72.3,29.89,WNW,292,3.2,-999.0,93,-99.99,,,0.02,Acu-Link.com,2013-06-27 18:45:00,
2013-06-27 14:00:00,75.0,73.2,29.84,NE,45,2.7,-999.0,94,-99.99,,,0.03,Acu-Link.com,2013-06-27 19:00:00,
2013-06-27 14:16:00,75.4,73.9,29.84,East,90,2.2,-999.0,95,-99.99,,,0.03,Acu-Link.com,2013-06-27 19:16:00,
2013-06-27 14:31:00,76.1,74.2,29.81,NNE,22,4.2,-999.0,94,-99.99,,,0.03,Acu-Link.com,2013-06-27 19:31:00,
2013-06-27 14:46:00,79.2,75.3,29.81,East,90,2.2,-999.0,88,-99.99,,,0.03,Acu-Link.com,2013-06-27 19:46:00,
2013-06-27 15:01:00,80.6,75.3,29.82,NNW,337,1.1,-999.0,84,-99.99,,,0.03,Acu-Link.com,2013-06-27 20:01:00,
2013-06-27 15:16:00,81.9,75.8,29.83,SSE,157,1.7,-999.0,82,-99.99,,,0.03,Acu-Link.com,2013-06-27 20:16:00,
2013-06-27 15:31:00,81.5,75.5,29.85,NE,45,0.0,-999.0,82,-99.99,,,0.03,Acu-Link.com,2013-06-27 20:31:00,
2013-06-27 15:46:00,82.8,76.4,29.84,South,180,0.0,-999.0,81,-99.99,,,0.03,Acu-Link.com,2013-06-27 20:46:00,
2013-06-27 16:02:00,81.9,75.5,29.81,SSE,157,3.2,-999.0,81,-99.99,,,0.03,Acu-Link.com,2013-06-27 21:02:00,
2013-06-27 16:17:00,80.8,75.5,29.81,ESE,112,2.7,-999.0,84,-99.99,,,0.03,Acu-Link.com,2013-06-27 21:17:00,
2013-06-27 16:47:00,80.8,75.9,29.81,SSW,202,1.7,-999.0,85,-99.99,,,0.03,Acu-Link.com,2013-06-27 21:47:00,
2013-06-27 17:02:00,81.3,76.3,29.82,SSE,157,0.0,-999.0,85,-99.99,,,0.03,Acu-Link.com,2013-06-27 22:02:00,
2013-06-27 17:18:00,80.8,76.9,29.81,NNE,22,0.0,-999.0,88,-99.99,,,0.03,Acu-Link.com,2013-06-27 22:18:00,
2013-06-27 17:33:00,80.6,76.7,29.80,NNW,337,0.0,-999.0,88,-99.99,,,0.03,Acu-Link.com,2013-06-27 22:33:00,
2013-06-27 17:48:00,81.3,76.7,29.79,East,90,0.0,-999.0,86,-99.99,,,0.03,Acu-Link.com,2013-06-27 22:48:00,
2013-06-27 18:18:00,81.3,77.0,29.77,North,0,0.0,-999.0,87,-99.99,,,0.03,Acu-Link.com,2013-06-27 23:18:00,
2013-06-27 18:34:00,81.0,77.1,29.76,SSE,157,3.2,-999.0,88,-99.99,,,0.03,Acu-Link.com,2013-06-27 23:34:00,
2013-06-27 18:49:00,79.9,76.4,29.74,South,180,4.7,-999.0,89,-99.99,,,0.03,Acu-Link.com,2013-06-27 23:49:00,
2013-06-27 19:20:00,79.2,75.7,29.72,SSE,157,3.2,-999.0,89,-99.99,,,0.03,Acu-Link.com,2013-06-28 00:20:00,
2013-06-27 19:35:00,78.8,75.6,29.76,NW,315,3.2,-999.0,90,-99.99,,,0.03,Acu-Link.com,2013-06-28 00:35:00,
2013-06-27 20:30:00,76.6,75.1,29.81,NNE,22,4.2,-999.0,95,-99.99,,,0.03,Acu-Link.com,2013-06-28 01:30:00,
2013-06-27 20:46:00,76.6,75.1,29.79,NNW,337,4.2,-999.0,95,-99.99,,,0.03,Acu-Link.com,2013-06-28 01:46:00,
2013-06-27 21:03:00,75.7,74.8,29.80,North,0,3.2,-999.0,97,-99.99,,,0.03,Acu-Link.com,2013-06-28 02:03:00,
2013-06-27 21:21:00,75.6,74.7,29.81,NNW,337,1.7,-999.0,97,-99.99,,,0.03,Acu-Link.com,2013-06-28 02:21:00,
2013-06-27 21:42:00,75.4,74.5,29.81,North,0,0.0,-999.0,97,-99.99,,,0.03,Acu-Link.com,2013-06-28 02:42:00,
2013-06-27 21:57:00,74.8,73.9,29.81,WNW,292,2.2,-999.0,97,-99.99,,,0.03,Acu-Link.com,2013-06-28 02:57:00,
2013-06-27 22:13:00,74.7,73.8,29.80,NNE,22,6.3,-999.0,97,-99.99,,,0.03,Acu-Link.com,2013-06-28 03:13:00,
2013-06-27 22:29:00,74.5,73.6,29.79,NNE,22,2.2,-999.0,97,-99.99,,,0.03,Acu-Link.com,2013-06-28 03:29:00,
2013-06-27 23:14:00,74.7,74.1,29.77,NE,45,1.7,-999.0,98,-99.99,,,0.03,Acu-Link.com,2013-06-28 04:14:00,
2013-06-27 23:36:00,74.7,74.1,29.76,North,0,4.7,-999.0,98,-99.99,,,0.03,Acu-Link.com,2013-06-28 04:36:00,